»·PEaware :: N716TH KLAX-KSAN

N716TH :: KLAX-KSAN

FLIGHT INFORMATION

Flight Status: Arrived
Operator: Privately registered:
United States
More flights under this callsign
Pilot: Danny R. (17997)
Aircraft: CESSNA 172 SKYHAWK
(C172)
More flights by this aircraft type
Origin: KLAX Los Angeles Intl
United States
Destination: KSAN San Diego Intl-Lindbergh
United States
More flights between these airports :: More routes between these airports
Route:
File this flight plan on PilotEdge
Remarks:
Altitude:
(Current/Filed)
3,500ft
Speed:
(Current/Filed)
100kts
Departed: 07-Mar-18 01:23 PM
Arrived: 07-Mar-18 02:33 PM
Distance/Time
Traveled:
95nm/1:10
Distance/Time
To Go:
Arrived

Flight Plot

Page will automatically refresh every two minutes.


Map Options




Map Legend


Flown Route
Filed Route
Departure Airport
Arrival Airport
Navaid (VOR, NDB)
Fix

Horizontal Profiles

Position Reports

Time Latitude Longitude Heading Altitude Ground
Speed
07-Mar-18 12:49 33.933539 -118.396960 287 129ft 0kts
07-Mar-18 12:50 33.933539 -118.396960 287 129ft 0kts
07-Mar-18 12:51 33.933539 -118.396960 287 129ft 0kts
07-Mar-18 12:52 33.933539 -118.396960 287 129ft 0kts
07-Mar-18 12:53 33.933539 -118.396960 287 129ft 0kts
07-Mar-18 12:54 33.933539 -118.396960 287 129ft 0kts
07-Mar-18 12:55 33.933539 -118.396960 287 129ft 0kts
07-Mar-18 12:56 33.933539 -118.396960 287 129ft 0kts
07-Mar-18 12:57 33.933539 -118.396961 287 129ft 0kts
07-Mar-18 12:58 33.933539 -118.396961 287 129ft 0kts
07-Mar-18 12:59 33.933539 -118.396961 287 129ft 0kts
07-Mar-18 13:00 33.933539 -118.396961 287 129ft 0kts
07-Mar-18 13:01 33.933540 -118.396961 287 129ft 0kts
07-Mar-18 13:02 33.933539 -118.396961 287 129ft 0kts
07-Mar-18 13:03 33.933539 -118.396961 287 129ft 0kts
07-Mar-18 13:04 33.933539 -118.396961 287 129ft 0kts
07-Mar-18 13:05 33.933539 -118.396961 287 129ft 0kts
07-Mar-18 13:06 33.933539 -118.396961 287 129ft 0kts
07-Mar-18 13:07 33.933539 -118.396961 287 129ft 0kts
07-Mar-18 13:08 33.933539 -118.396961 287 129ft 0kts
07-Mar-18 13:09 33.933539 -118.396961 287 129ft 0kts
07-Mar-18 13:10 33.933539 -118.396961 287 129ft 0kts
07-Mar-18 13:11 33.933539 -118.396961 287 129ft 0kts
07-Mar-18 13:12 33.933539 -118.396961 287 129ft 0kts
07-Mar-18 13:13 33.933539 -118.396961 287 129ft 0kts
07-Mar-18 13:14 33.933539 -118.396961 287 129ft 0kts
07-Mar-18 13:15 33.933539 -118.396961 287 129ft 0kts
07-Mar-18 13:16 33.933539 -118.396961 287 129ft 0kts
07-Mar-18 13:17 33.933539 -118.396961 287 129ft 0kts
07-Mar-18 13:18 33.933539 -118.396961 287 129ft 0kts
07-Mar-18 13:19 33.933539 -118.396961 287 129ft 0kts
07-Mar-18 13:20 33.933539 -118.396961 287 129ft 0kts
07-Mar-18 13:21 33.933539 -118.396961 287 129ft 0kts
07-Mar-18 13:22 33.933539 -118.396961 287 129ft 0kts
07-Mar-18 13:23 33.933539 -118.396961 287 129ft 0kts
07-Mar-18 13:24 33.933920 -118.397703 295 129ft 6kts
07-Mar-18 13:25 33.935004 -118.393810 83 129ft 23kts
07-Mar-18 13:26 33.935768 -118.386283 82 129ft 22kts
07-Mar-18 13:27 33.936481 -118.382758 359 129ft 0kts
07-Mar-18 13:28 33.936481 -118.382758 359 129ft 0kts
07-Mar-18 13:29 33.937302 -118.383210 265 129ft 13kts
07-Mar-18 13:30 33.935843 -118.402154 265 766ft 64kts
07-Mar-18 13:31 33.934515 -118.423019 266 1591ft 63kts
07-Mar-18 13:32 33.933499 -118.444244 266 2349ft 66kts
07-Mar-18 13:33 33.932125 -118.468434 263 2885ft 85kts
07-Mar-18 13:34 33.930233 -118.499979 268 2968ft 99kts
07-Mar-18 13:35 33.928899 -118.533160 268 2927ft 99kts
07-Mar-18 13:36 33.928854 -118.566289 276 2862ft 99kts
07-Mar-18 13:37 33.924055 -118.596901 206 2840ft 98kts
07-Mar-18 13:38 33.899729 -118.579030 144 2773ft 107kts
07-Mar-18 13:39 33.877278 -118.556228 143 2780ft 104kts
07-Mar-18 13:40 33.855572 -118.533175 142 2819ft 101kts
07-Mar-18 13:41 33.834384 -118.510838 139 2930ft 103kts
07-Mar-18 13:42 33.812249 -118.487213 141 2976ft 108kts
07-Mar-18 13:43 33.788588 -118.462612 143 2953ft 114kts
07-Mar-18 13:44 33.763777 -118.438265 143 2971ft 114kts
07-Mar-18 13:45 33.739705 -118.413684 141 3004ft 113kts
07-Mar-18 13:46 33.729706 -118.377715 104 3003ft 114kts
07-Mar-18 13:47 33.721973 -118.341030 104 2999ft 113kts
07-Mar-18 13:48 33.714298 -118.304597 104 3001ft 112kts
07-Mar-18 13:49 33.706638 -118.268207 104 2997ft 112kts
07-Mar-18 13:50 33.698983 -118.231822 104 2995ft 111kts
07-Mar-18 13:51 33.691704 -118.197295 104 2991ft 102kts
07-Mar-18 13:52 33.684870 -118.164761 104 2996ft 98kts
07-Mar-18 13:53 33.673749 -118.135233 130 2997ft 98kts
07-Mar-18 13:54 33.654117 -118.112371 138 2998ft 98kts
07-Mar-18 13:55 33.633248 -118.091063 141 2995ft 98kts
07-Mar-18 13:56 33.611912 -118.069888 139 2995ft 100kts
07-Mar-18 13:57 33.589940 -118.047621 140 2995ft 107kts
07-Mar-18 13:58 33.570811 -118.028411 141 3008ft 109kts
07-Mar-18 13:59 33.547317 -118.004406 140 2994ft 112kts
07-Mar-18 14:00 33.523515 -117.981046 139 3002ft 113kts
07-Mar-18 14:01 33.499556 -117.956083 140 2989ft 115kts
07-Mar-18 14:02 33.474910 -117.932857 146 3058ft 109kts
07-Mar-18 14:03 33.450167 -117.911340 130 3069ft 112kts
07-Mar-18 14:04 33.429064 -117.883743 118 3067ft 114kts
07-Mar-18 14:05 33.417257 -117.848497 122 3065ft 114kts
07-Mar-18 14:06 33.393235 -117.823807 141 3064ft 114kts
07-Mar-18 14:07 33.368708 -117.799565 141 3063ft 114kts
07-Mar-18 14:08 33.344779 -117.775937 142 3061ft 114kts
07-Mar-18 14:09 33.320326 -117.751812 142 3060ft 115kts
07-Mar-18 14:10 33.295660 -117.727490 142 3059ft 115kts
07-Mar-18 14:11 33.270911 -117.703096 142 3056ft 116kts
07-Mar-18 14:12 33.246989 -117.677720 118 3054ft 117kts
07-Mar-18 14:13 33.235343 -117.641631 110 3055ft 117kts
07-Mar-18 14:14 33.214535 -117.613930 144 3052ft 115kts
07-Mar-18 14:15 33.189116 -117.590887 144 3031ft 116kts
07-Mar-18 14:16 33.163872 -117.568060 144 3020ft 113kts
07-Mar-18 14:17 33.138557 -117.545194 144 2972ft 114kts
07-Mar-18 14:18 33.113624 -117.522691 144 2970ft 113kts
07-Mar-18 14:19 33.088643 -117.500152 144 2968ft 112kts
07-Mar-18 14:20 33.063885 -117.477837 144 2966ft 112kts
07-Mar-18 14:21 33.039205 -117.455603 144 2965ft 111kts
07-Mar-18 14:22 33.014487 -117.433354 144 2965ft 111kts
07-Mar-18 14:23 32.989924 -117.411257 144 2963ft 111kts
07-Mar-18 14:24 32.979754 -117.377008 101 2967ft 115kts
07-Mar-18 14:25 32.972564 -117.340548 102 2451ft 115kts
07-Mar-18 14:26 32.965780 -117.307616 102 1585ft 100kts
07-Mar-18 14:27 32.954503 -117.284825 183 1477ft 91kts
07-Mar-18 14:28 32.926256 -117.285645 185 1470ft 108kts
07-Mar-18 14:29 32.896107 -117.282255 162 1497ft 115kts
07-Mar-18 14:30 32.866374 -117.269159 162 1516ft 101kts
07-Mar-18 14:31 32.844257 -117.257138 150 1475ft 84kts
07-Mar-18 14:32 32.824537 -117.241853 149 1495ft 84kts
07-Mar-18 14:33 32.801584 -117.233596 175 1376ft 90kts
07-Mar-18 14:34 32.776175 -117.232302 179 1101ft 92kts
07-Mar-18 14:35 32.754470 -117.218142 130 973ft 89kts
07-Mar-18 14:36 32.745782 -117.191865 102 1018ft 78kts
07-Mar-18 14:37 32.742354 -117.166498 88 1008ft 77kts
07-Mar-18 14:38 32.731092 -117.152108 198 761ft 67kts
07-Mar-18 14:39 32.728243 -117.167524 288 311ft 58kts
07-Mar-18 14:40 32.731953 -117.183019 284 21ft 21kts
07-Mar-18 14:41 32.731564 -117.184817 230 21ft 0kts
07-Mar-18 14:42 32.732109 -117.187889 286 21ft 14kts
07-Mar-18 14:43 32.731431 -117.190621 119 21ft 8kts
07-Mar-18 14:44 32.731572 -117.190428 287 21ft 0kts
07-Mar-18 14:45 32.731572 -117.190428 287 21ft 0kts
07-Mar-18 14:46 32.731572 -117.190428 287 21ft 0kts
07-Mar-18 14:47 32.731572 -117.190428 287 21ft 0kts

Navigation Log

Ident Type
1. KLAX Airport
2. KSAN Airport